createdAt,value
2022-11-10T00:01:55.085Z,8.24
2022-11-10T00:07:15.452Z,8.18
2022-11-10T00:12:36.027Z,8.05
2022-11-10T00:17:56.394Z,7.88
2022-11-10T00:23:16.657Z,7.69
2022-11-10T00:28:37.030Z,7.65
2022-11-10T00:33:58.339Z,7.64
2022-11-10T00:39:18.800Z,7.71
2022-11-10T00:44:39.199Z,7.81
2022-11-10T00:49:59.629Z,7.96
2022-11-10T00:55:19.741Z,8.02
2022-11-10T01:00:40.561Z,7.86
2022-11-10T01:06:09.744Z,7.69
2022-11-10T01:11:30.190Z,7.52
2022-11-10T01:16:50.253Z,7.34
2022-11-10T01:22:10.543Z,7.22
2022-11-10T01:27:31.403Z,7.09
2022-11-10T01:32:51.902Z,6.97
2022-11-10T01:38:12.235Z,6.74
2022-11-10T01:43:33.285Z,6.73
2022-11-10T01:48:59.171Z,6.68
2022-11-10T01:54:26.358Z,6.48
2022-11-10T01:59:49.179Z,6.31
2022-11-10T02:05:09.988Z,6.14
2022-11-10T02:10:30.470Z,6.00
2022-11-10T02:15:50.764Z,5.96
2022-11-10T02:21:11.276Z,5.85
2022-11-10T02:26:31.996Z,5.71
2022-11-10T02:31:52.377Z,5.58
2022-11-10T02:37:12.852Z,5.53
2022-11-10T02:42:33.221Z,5.58
2022-11-10T02:47:53.637Z,5.77
2022-11-10T02:53:14.144Z,5.82
2022-11-10T02:58:34.292Z,5.63
2022-11-10T03:03:54.580Z,5.46
2022-11-10T03:09:15.125Z,5.20
2022-11-10T03:14:35.835Z,5.13
2022-11-10T03:19:55.980Z,4.98
2022-11-10T03:25:16.320Z,4.87
2022-11-10T03:30:37.343Z,4.72
2022-11-10T03:35:57.626Z,4.71
2022-11-10T03:41:19.750Z,4.73
2022-11-10T03:46:43.366Z,4.74
2022-11-10T03:52:04.007Z,4.67
2022-11-10T03:57:24.172Z,4.77
2022-11-10T04:02:44.630Z,5.11
2022-11-10T04:08:32.658Z,4.90
2022-11-10T04:14:11.316Z,4.66
2022-11-10T04:19:31.641Z,4.43
2022-11-10T04:24:51.666Z,4.27
2022-11-10T04:30:12.216Z,4.18
2022-11-10T04:35:32.492Z,4.06
2022-11-10T04:40:53.455Z,4.03
2022-11-10T04:46:24.468Z,3.98
2022-11-10T04:51:44.693Z,4.02
2022-11-10T04:57:05.099Z,4.06
2022-11-10T05:02:25.452Z,3.98
2022-11-10T05:07:48.662Z,4.15
2022-11-10T05:13:08.834Z,4.79
2022-11-10T05:18:29.359Z,5.26
2022-11-10T05:23:49.651Z,5.44
2022-11-10T05:29:09.913Z,5.64
2022-11-10T05:34:30.346Z,5.55
2022-11-10T05:39:50.713Z,5.66
2022-11-10T05:45:11.085Z,5.54
2022-11-10T05:50:31.589Z,5.49
2022-11-10T05:55:51.937Z,5.25
2022-11-10T06:01:12.367Z,5.06
2022-11-10T06:06:32.750Z,5.02
2022-11-10T06:11:53.230Z,5.27
2022-11-10T06:17:14.480Z,5.38
2022-11-10T06:22:34.676Z,5.72
2022-11-10T06:27:55.257Z,6.09
2022-11-10T06:33:15.321Z,6.18
2022-11-10T06:38:36.089Z,6.20
2022-11-10T06:43:56.413Z,6.32
2022-11-10T06:49:16.566Z,6.40
2022-11-10T06:54:37.006Z,6.51
2022-11-10T06:59:57.217Z,6.62
2022-11-10T07:05:17.627Z,6.71
2022-11-10T07:10:38.033Z,6.87
2022-11-10T07:15:58.369Z,7.05
2022-11-10T07:21:19.098Z,7.22
2022-11-10T07:26:39.237Z,7.43
2022-11-10T07:31:59.765Z,7.63
2022-11-10T07:37:20.037Z,7.66
2022-11-10T07:42:40.779Z,7.76
2022-11-10T07:48:03.007Z,7.89
2022-11-10T07:53:23.369Z,8.11
2022-11-10T07:58:44.058Z,8.35
2022-11-10T08:04:04.554Z,8.47
2022-11-10T08:09:24.629Z,8.54
2022-11-10T08:14:44.940Z,8.53
2022-11-10T08:20:05.942Z,8.28
2022-11-10T08:25:34.190Z,8.46
2022-11-10T08:30:55.482Z,8.78
2022-11-10T08:36:16.015Z,9.03
2022-11-10T08:41:36.464Z,9.21
2022-11-10T08:46:56.841Z,9.40
2022-11-10T08:52:17.172Z,9.40
2022-11-10T08:57:37.627Z,9.32
2022-11-10T09:03:13.769Z,9.58
2022-11-10T09:08:34.289Z,10.04
2022-11-10T09:13:54.440Z,10.59
2022-11-10T09:19:19.704Z,10.69
2022-11-10T09:24:40.216Z,10.20
2022-11-10T09:30:00.488Z,10.07
2022-11-10T09:35:21.014Z,10.17
2022-11-10T09:41:06.774Z,10.25
2022-11-10T09:46:32.468Z,10.61
2022-11-10T09:51:54.071Z,10.57
2022-11-10T09:57:19.031Z,10.68
2022-11-10T10:02:56.548Z,11.07
2022-11-10T10:08:33.338Z,11.22
2022-11-10T10:14:01.352Z,11.33
2022-11-10T10:19:24.536Z,11.60
2022-11-10T10:24:44.733Z,11.61
2022-11-10T10:30:17.118Z,11.91
2022-11-10T10:35:41.825Z,11.97
2022-11-10T10:41:30.609Z,12.00
2022-11-10T10:46:55.295Z,12.55
2022-11-10T10:52:18.173Z,13.34
2022-11-10T10:57:51.417Z,13.87
2022-11-10T11:03:21.907Z,12.88
2022-11-10T11:08:59.171Z,12.34
2022-11-10T11:14:28.874Z,12.16
2022-11-10T11:19:59.917Z,12.46
2022-11-10T11:25:35.073Z,12.26
2022-11-10T11:31:19.278Z,12.11
2022-11-10T11:36:48.758Z,12.37
2022-11-10T11:42:21.165Z,12.83
2022-11-10T11:48:22.769Z,13.31
2022-11-10T11:54:01.276Z,14.53
2022-11-10T11:59:43.230Z,13.32
2022-11-10T12:05:03.596Z,12.42
2022-11-10T12:10:33.093Z,12.61
2022-11-10T12:16:01.739Z,14.40
2022-11-10T12:21:54.276Z,15.74
2022-11-10T12:27:38.246Z,14.74
2022-11-10T12:33:22.935Z,15.34
2022-11-10T12:39:05.136Z,14.85
2022-11-10T12:44:37.341Z,13.97
2022-11-10T12:50:03.842Z,13.35
2022-11-10T12:55:39.660Z,12.96
2022-11-10T13:01:06.239Z,12.70
2022-11-10T13:06:37.750Z,12.44
2022-11-10T13:12:16.738Z,12.17
2022-11-10T13:17:39.919Z,11.94
2022-11-10T13:23:00.339Z,11.85
2022-11-10T13:28:48.788Z,11.82
2022-11-10T13:34:27.022Z,11.57
2022-11-10T13:39:47.701Z,11.58
2022-11-10T13:45:29.892Z,11.64
2022-11-10T13:50:56.454Z,11.70
2022-11-10T13:56:22.855Z,11.67
2022-11-10T14:01:43.162Z,11.55
2022-11-10T14:07:13.032Z,11.37
2022-11-10T14:12:40.917Z,11.29
2022-11-10T14:18:01.443Z,11.13
2022-11-10T14:23:30.369Z,10.93
2022-11-10T14:28:50.359Z,10.83
2022-11-10T14:34:16.744Z,10.69
2022-11-10T14:39:37.385Z,10.57
2022-11-10T14:45:18.642Z,10.42
2022-11-10T14:50:41.057Z,10.28
2022-11-10T14:56:03.552Z,10.13
2022-11-10T15:01:25.202Z,10.04
2022-11-10T15:06:48.142Z,9.95
2022-11-10T15:12:19.559Z,9.89
2022-11-10T15:17:45.181Z,9.77
2022-11-10T15:23:21.625Z,9.68
2022-11-10T15:28:42.562Z,9.62
2022-11-10T15:34:05.230Z,9.48
2022-11-10T15:39:27.377Z,9.36
2022-11-10T15:44:48.421Z,9.24
2022-11-10T15:50:12.140Z,9.13
2022-11-10T15:55:34.541Z,9.04
2022-11-10T16:00:54.923Z,8.94
2022-11-10T16:06:17.101Z,8.80
2022-11-10T16:11:38.332Z,8.71
2022-11-10T16:16:58.959Z,8.58
2022-11-10T16:22:19.140Z,8.38
2022-11-10T16:27:40.593Z,8.24
2022-11-10T16:33:01.145Z,8.22
2022-11-10T16:38:39.408Z,8.16
2022-11-10T16:43:59.889Z,8.03
2022-11-10T16:49:46.769Z,7.93
2022-11-10T16:55:09.775Z,7.80
2022-11-10T17:00:30.086Z,7.80
2022-11-10T17:05:50.504Z,7.83
2022-11-10T17:11:10.921Z,7.81
2022-11-10T17:16:37.685Z,7.75
2022-11-10T17:21:58.023Z,7.68
2022-11-10T17:27:20.144Z,7.54
2022-11-10T17:33:05.698Z,7.39
2022-11-10T17:38:29.742Z,7.18
2022-11-10T17:43:50.056Z,6.92
2022-11-10T17:49:10.719Z,6.72
2022-11-10T17:54:30.864Z,6.55
2022-11-10T17:59:51.035Z,6.40
2022-11-10T18:05:16.850Z,6.11
2022-11-10T18:10:41.751Z,5.88
2022-11-10T18:16:02.141Z,5.68
2022-11-10T18:21:22.552Z,5.66
2022-11-10T18:26:43.093Z,5.86
2022-11-10T18:32:03.839Z,5.74
2022-11-10T18:37:24.437Z,5.51
2022-11-10T18:42:44.708Z,5.28
2022-11-10T18:48:05.406Z,5.12
2022-11-10T18:53:26.074Z,5.00
2022-11-10T18:58:56.190Z,4.98
2022-11-10T19:04:16.676Z,4.83
2022-11-10T19:09:37.038Z,4.52
2022-11-10T19:14:57.512Z,4.53
2022-11-10T19:20:18.234Z,4.54
2022-11-10T19:25:38.427Z,4.54
2022-11-10T19:31:03.118Z,4.49
2022-11-10T19:36:28.529Z,4.42
2022-11-10T19:41:48.669Z,4.32
2022-11-10T19:47:09.108Z,4.34
2022-11-10T19:52:29.912Z,4.32
2022-11-10T19:57:50.552Z,4.29
2022-11-10T20:03:11.500Z,4.22
2022-11-10T20:08:32.569Z,4.06
2022-11-10T20:13:56.078Z,3.98
2022-11-10T20:19:16.318Z,3.89
2022-11-10T20:24:36.906Z,3.81
2022-11-10T20:29:57.128Z,3.72
2022-11-10T20:35:17.299Z,3.70
2022-11-10T20:40:44.452Z,3.61
2022-11-10T20:46:06.676Z,3.58
2022-11-10T20:51:27.206Z,3.50
2022-11-10T20:56:47.448Z,3.47
2022-11-10T21:02:12.443Z,3.53
2022-11-10T21:07:32.701Z,3.52
2022-11-10T21:12:53.303Z,3.63
2022-11-10T21:18:13.717Z,3.65
2022-11-10T21:23:34.069Z,3.88
2022-11-10T21:28:54.684Z,4.02
2022-11-10T21:34:15.041Z,4.22
2022-11-10T21:39:35.696Z,4.12
2022-11-10T21:44:55.837Z,4.06
2022-11-10T21:50:17.591Z,4.06
2022-11-10T21:55:37.720Z,3.91
2022-11-10T22:01:04.131Z,3.95
2022-11-10T22:06:44.711Z,3.96
2022-11-10T22:12:23.236Z,4.26
2022-11-10T22:18:01.959Z,4.82
2022-11-10T22:23:41.934Z,4.83
2022-11-10T22:29:02.340Z,4.94
2022-11-10T22:34:22.701Z,4.76
2022-11-10T22:40:01.728Z,4.53
2022-11-10T22:45:21.881Z,4.51
2022-11-10T22:50:42.322Z,4.46
2022-11-10T22:56:02.678Z,4.42
2022-11-10T23:01:23.685Z,4.61
2022-11-10T23:06:44.066Z,4.45
2022-11-10T23:12:04.737Z,5.16
2022-11-10T23:17:24.799Z,5.44
2022-11-10T23:22:45.301Z,5.63
2022-11-10T23:28:05.728Z,5.49
2022-11-10T23:33:31.394Z,5.18
2022-11-10T23:38:54.578Z,4.70
2022-11-10T23:44:17.865Z,4.39
2022-11-10T23:49:38.033Z,4.22
2022-11-10T23:54:58.338Z,4.11
